createdAt,value
2023-04-23T00:01:06.405Z,4.43
2023-04-23T00:04:08.816Z,4.38
2023-04-23T00:07:10.723Z,5.07
2023-04-23T00:10:12.550Z,4.65
2023-04-23T00:13:13.950Z,3.47
2023-04-23T00:16:15.848Z,4.45
2023-04-23T00:19:17.287Z,3.13
2023-04-23T00:22:20.128Z,4.57
2023-04-23T00:25:21.601Z,4.68
2023-04-23T00:28:22.873Z,4.40
2023-04-23T00:31:24.342Z,4.43
2023-04-23T00:34:26.090Z,4.45
2023-04-23T00:37:27.370Z,3.60
2023-04-23T00:40:28.827Z,3.72
2023-04-23T00:43:30.885Z,5.20
2023-04-23T00:46:32.191Z,5.15
2023-04-23T00:49:33.986Z,3.92
2023-04-23T00:52:36.040Z,4.47
2023-04-23T00:55:37.480Z,3.65
2023-04-23T00:58:39.456Z,4.40
2023-04-23T01:01:41.176Z,3.85
2023-04-23T01:04:44.100Z,3.85
2023-04-23T01:07:46.589Z,3.55
2023-04-23T01:10:48.371Z,3.47
2023-04-23T01:13:50.334Z,3.90
2023-04-23T01:16:52.739Z,3.58
2023-04-23T01:19:54.056Z,3.95
2023-04-23T01:22:55.314Z,3.33
2023-04-23T01:25:57.612Z,3.25
2023-04-23T01:28:59.819Z,3.00
2023-04-23T01:32:01.627Z,3.70
2023-04-23T01:35:04.684Z,3.22
2023-04-23T01:38:07.613Z,3.45
2023-04-23T01:41:08.933Z,3.28
2023-04-23T01:44:10.670Z,4.28
2023-04-23T01:47:12.112Z,2.85
2023-04-23T01:50:13.737Z,3.92
2023-04-23T01:53:15.019Z,3.10
2023-04-23T01:56:16.490Z,4.05
2023-04-23T01:59:17.779Z,4.32
2023-04-23T02:02:19.793Z,4.05
2023-04-23T02:05:21.141Z,2.92
2023-04-23T02:08:22.833Z,3.22
2023-04-23T02:11:24.218Z,2.97
2023-04-23T02:14:25.503Z,3.20
2023-04-23T02:17:28.234Z,3.25
2023-04-23T02:20:29.532Z,3.05
2023-04-23T02:23:30.798Z,2.95
2023-04-23T02:26:32.065Z,3.08
2023-04-23T02:29:34.575Z,3.40
2023-04-23T02:32:37.206Z,3.50
2023-04-23T02:35:38.464Z,3.78
2023-04-23T02:38:42.355Z,3.85
2023-04-23T02:41:43.750Z,4.20
2023-04-23T02:44:45.263Z,3.85
2023-04-23T02:47:46.584Z,3.70
2023-04-23T02:50:47.944Z,3.85
2023-04-23T02:53:49.234Z,4.30
2023-04-23T02:56:50.528Z,3.75
2023-04-23T02:59:51.774Z,4.03
2023-04-23T03:02:53.229Z,4.85
2023-04-23T03:05:55.157Z,4.10
2023-04-23T03:08:56.434Z,4.70
2023-04-23T03:11:57.701Z,4.60
2023-04-23T03:14:58.988Z,3.53
2023-04-23T03:18:01.359Z,4.38
2023-04-23T03:21:02.666Z,3.63
2023-04-23T03:24:04.027Z,5.43
2023-04-23T03:27:05.331Z,4.25
2023-04-23T03:30:07.928Z,4.28
2023-04-23T03:33:09.409Z,4.32
2023-04-23T03:36:10.974Z,3.72
2023-04-23T03:39:12.242Z,3.88
2023-04-23T03:42:13.479Z,4.15
2023-04-23T03:45:16.585Z,4.03
2023-04-23T03:48:17.817Z,4.38
2023-04-23T03:51:19.120Z,4.20
2023-04-23T03:54:20.780Z,4.53
2023-04-23T03:57:22.086Z,4.50
2023-04-23T04:00:23.411Z,4.65
2023-04-23T04:03:24.904Z,4.60
2023-04-23T04:06:26.392Z,4.30
2023-04-23T04:09:27.882Z,4.05
2023-04-23T04:12:29.346Z,4.35
2023-04-23T04:15:32.155Z,4.47
2023-04-23T04:18:33.506Z,4.13
2023-04-23T04:21:34.802Z,3.72
2023-04-23T04:24:36.110Z,4.15
2023-04-23T04:27:37.529Z,4.53
2023-04-23T04:30:39.515Z,4.78
2023-04-23T04:33:41.430Z,4.10
2023-04-23T04:36:42.805Z,3.88
2023-04-23T04:39:44.326Z,5.80
2023-04-23T04:42:46.409Z,5.45
2023-04-23T04:45:47.898Z,4.18
2023-04-23T04:48:49.249Z,4.03
2023-04-23T04:51:51.287Z,4.30
2023-04-23T04:54:52.606Z,4.25
2023-04-23T04:57:54.005Z,3.95
2023-04-23T05:00:55.797Z,3.92
2023-04-23T05:03:57.521Z,4.70
2023-04-23T05:07:01.579Z,3.72
2023-04-23T05:10:02.826Z,3.33
2023-04-23T05:13:04.072Z,4.03
2023-04-23T05:16:05.685Z,3.03
2023-04-23T05:19:08.188Z,3.53
2023-04-23T05:22:09.467Z,4.07
2023-04-23T05:25:11.999Z,2.95
2023-04-23T05:28:13.301Z,3.40
2023-04-23T05:31:14.694Z,3.80
2023-04-23T05:34:15.968Z,3.05
2023-04-23T05:37:17.244Z,3.45
2023-04-23T05:40:18.574Z,2.58
2023-04-23T05:43:19.861Z,3.35
2023-04-23T05:46:21.189Z,3.28
2023-04-23T05:49:22.769Z,5.25
2023-04-23T05:52:25.031Z,7.88
2023-04-23T05:55:26.764Z,4.82
2023-04-23T05:58:27.986Z,5.05
2023-04-23T06:01:29.249Z,3.40
2023-04-23T06:04:31.039Z,3.03
2023-04-23T06:07:32.960Z,4.20
2023-04-23T06:10:34.237Z,4.82
2023-04-23T06:13:43.013Z,3.13
2023-04-23T06:16:45.041Z,5.07
2023-04-23T06:19:46.409Z,2.15
2023-04-23T06:22:47.728Z,3.47
2023-04-23T06:25:49.039Z,2.72
2023-04-23T06:28:50.306Z,3.25
2023-04-23T06:31:51.628Z,3.50
2023-04-23T06:35:00.871Z,2.95
2023-04-23T06:38:03.107Z,2.72
2023-04-23T06:41:04.773Z,3.05
2023-04-23T06:44:06.175Z,3.50
2023-04-23T06:47:07.481Z,3.58
2023-04-23T06:50:08.905Z,3.22
2023-04-23T06:53:10.296Z,4.10
2023-04-23T06:56:11.581Z,4.22
2023-04-23T06:59:12.828Z,3.20
2023-04-23T07:02:14.087Z,2.88
2023-04-23T07:05:16.380Z,3.25
2023-04-23T07:08:17.662Z,2.95
2023-04-23T07:11:18.975Z,2.65
2023-04-23T07:14:20.604Z,2.75
2023-04-23T07:17:22.049Z,2.45
2023-04-23T07:20:23.396Z,5.32
2023-04-23T07:23:24.681Z,4.53
2023-04-23T07:26:27.328Z,3.53
2023-04-23T07:29:28.576Z,3.58
2023-04-23T07:32:29.853Z,2.95
2023-04-23T07:35:31.305Z,3.58
2023-04-23T07:38:32.588Z,2.72
2023-04-23T07:41:34.141Z,3.13
2023-04-23T07:44:35.393Z,3.55
2023-04-23T07:47:36.641Z,2.55
2023-04-23T07:50:37.914Z,4.25
2023-04-23T07:53:39.333Z,2.60
2023-04-23T07:56:43.137Z,2.75
2023-04-23T08:02:46.954Z,2.55
2023-04-23T08:05:48.339Z,2.45
2023-04-23T08:08:50.193Z,2.20
2023-04-23T08:11:51.605Z,2.28
2023-04-23T08:14:52.885Z,2.33
2023-04-23T08:17:54.315Z,3.17
2023-04-23T08:20:56.530Z,2.15
2023-04-23T08:23:57.956Z,2.72
2023-04-23T08:26:59.244Z,2.80
2023-04-23T08:30:00.583Z,2.45
2023-04-23T08:33:01.986Z,3.03
2023-04-23T08:36:03.422Z,2.20
2023-04-23T08:39:04.790Z,2.25
2023-04-23T08:42:11.351Z,2.45
2023-04-23T08:45:13.336Z,2.22
2023-04-23T08:48:14.994Z,2.17
2023-04-23T08:51:18.262Z,2.13
2023-04-23T08:54:22.508Z,2.20
2023-04-23T08:57:24.408Z,2.30
2023-04-23T09:00:26.113Z,1.92
2023-04-23T09:03:28.701Z,1.88
2023-04-23T09:06:32.147Z,1.90
2023-04-23T09:09:33.632Z,2.10
2023-04-23T09:12:35.557Z,2.20
2023-04-23T09:15:39.670Z,1.92
2023-04-23T09:18:42.153Z,2.65
2023-04-23T09:21:44.355Z,2.10
2023-04-23T09:24:45.643Z,2.30
2023-04-23T09:27:47.592Z,1.88
2023-04-23T09:30:49.062Z,2.13
2023-04-23T09:33:50.988Z,2.38
2023-04-23T09:36:52.959Z,2.40
2023-04-23T09:39:56.959Z,2.00
2023-04-23T09:42:58.264Z,1.85
2023-04-23T09:45:59.542Z,2.20
2023-04-23T09:49:02.783Z,1.90
2023-04-23T09:52:06.369Z,1.90
2023-04-23T09:55:08.581Z,2.10
2023-04-23T09:58:15.040Z,1.80
2023-04-23T10:01:16.405Z,1.90
2023-04-23T10:04:18.871Z,2.05
2023-04-23T10:07:20.795Z,2.10
2023-04-23T10:10:22.138Z,1.77
2023-04-23T10:13:23.706Z,1.75
2023-04-23T10:16:28.507Z,1.85
2023-04-23T10:19:34.489Z,1.63
2023-04-23T10:22:37.652Z,1.92
2023-04-23T10:25:39.145Z,2.15
2023-04-23T10:28:40.684Z,2.08
2023-04-23T10:31:42.600Z,1.98
2023-04-23T10:34:44.869Z,2.00
2023-04-23T10:37:47.993Z,2.13
2023-04-23T10:40:52.847Z,2.25
2023-04-23T10:43:54.172Z,2.03
2023-04-23T10:47:00.740Z,1.80
2023-04-23T10:50:18.968Z,1.88
2023-04-23T10:53:23.266Z,2.10
2023-04-23T10:56:27.534Z,1.70
2023-04-23T10:59:33.067Z,1.85
2023-04-23T11:02:43.889Z,1.83
2023-04-23T11:05:45.326Z,1.95
2023-04-23T11:08:56.386Z,1.80
2023-04-23T11:11:58.627Z,1.98
2023-04-23T11:15:09.448Z,1.70
2023-04-23T11:18:11.616Z,2.20
2023-04-23T11:21:13.428Z,1.88
2023-04-23T11:24:15.251Z,2.00
2023-04-23T11:27:17.544Z,1.95
2023-04-23T11:30:22.906Z,2.17
2023-04-23T11:33:24.221Z,2.60
2023-04-23T11:36:25.675Z,1.60
2023-04-23T11:39:27.324Z,1.63
2023-04-23T11:42:29.395Z,2.10
2023-04-23T11:45:30.758Z,1.38
2023-04-23T11:48:32.170Z,1.60
2023-04-23T11:51:33.658Z,2.05
2023-04-23T11:54:35.020Z,1.45
2023-04-23T11:57:37.257Z,2.13
2023-04-23T12:00:38.599Z,1.90
2023-04-23T12:03:40.110Z,1.70
2023-04-23T12:06:42.804Z,1.13
2023-04-23T12:09:45.593Z,1.20
2023-04-23T12:12:53.489Z,2.55
2023-04-23T12:15:59.043Z,1.60
2023-04-23T12:19:00.890Z,1.50
2023-04-23T12:22:04.555Z,1.70
2023-04-23T12:25:08.406Z,1.80
2023-04-23T12:28:09.837Z,2.13
2023-04-23T12:31:11.385Z,2.00
2023-04-23T12:34:14.596Z,1.92
2023-04-23T12:37:17.799Z,1.88
2023-04-23T12:40:19.655Z,1.88
2023-04-23T12:43:21.170Z,2.03
2023-04-23T12:46:22.498Z,1.70
2023-04-23T12:49:24.007Z,1.40
2023-04-23T12:52:25.534Z,1.20
2023-04-23T12:55:26.957Z,1.20
2023-04-23T12:58:28.308Z,1.60
2023-04-23T13:01:29.692Z,1.55
2023-04-23T13:04:32.255Z,1.65
2023-04-23T13:07:33.573Z,2.17
2023-04-23T13:10:35.147Z,1.20
2023-04-23T13:13:36.485Z,1.25
2023-04-23T13:16:37.942Z,1.23
2023-04-23T13:19:40.492Z,1.20
2023-04-23T13:22:42.026Z,1.17
2023-04-23T13:25:43.304Z,1.17
2023-04-23T13:28:44.633Z,1.67
2023-04-23T13:31:45.942Z,1.10
2023-04-23T13:34:47.372Z,1.13
2023-04-23T13:37:48.708Z,2.08
2023-04-23T13:40:50.798Z,1.00
2023-04-23T13:43:52.780Z,1.20
2023-04-23T13:46:54.165Z,1.83
2023-04-23T13:49:56.334Z,1.13
2023-04-23T13:52:57.718Z,1.05
2023-04-23T13:55:59.250Z,0.98
2023-04-23T14:02:06.919Z,1.00
2023-04-23T14:05:08.955Z,1.50
2023-04-23T14:08:11.045Z,1.08
2023-04-23T14:11:12.329Z,1.00
2023-04-23T14:14:13.739Z,1.80
2023-04-23T14:17:15.025Z,1.65
2023-04-23T14:20:16.352Z,1.45
2023-04-23T14:23:23.628Z,1.70
2023-04-23T14:26:40.782Z,1.50
2023-04-23T14:29:56.916Z,1.10
2023-04-23T14:32:58.337Z,1.15
2023-04-23T14:35:59.667Z,1.70
2023-04-23T14:39:04.988Z,1.13
2023-04-23T14:42:06.415Z,1.40
2023-04-23T14:45:08.001Z,1.13
2023-04-23T14:48:09.308Z,1.35
2023-04-23T14:51:10.857Z,1.27
2023-04-23T14:54:12.277Z,1.20
2023-04-23T14:57:13.552Z,1.15
2023-04-23T15:00:15.469Z,1.17
2023-04-23T15:03:16.950Z,1.23
2023-04-23T15:06:18.560Z,1.23
2023-04-23T15:09:19.876Z,1.50
2023-04-23T15:12:33.499Z,1.55
2023-04-23T15:15:44.748Z,2.08
2023-04-23T15:18:46.460Z,6.80
2023-04-23T15:21:48.133Z,1.67
2023-04-23T15:24:49.475Z,1.40
2023-04-23T15:27:57.566Z,1.20
2023-04-23T15:30:58.931Z,1.30
2023-04-23T15:34:00.447Z,1.27
2023-04-23T15:37:01.745Z,2.22
2023-04-23T15:40:03.200Z,2.53
2023-04-23T15:43:04.464Z,1.13
2023-04-23T15:46:05.989Z,1.67
2023-04-23T15:49:07.445Z,1.58
2023-04-23T15:52:08.769Z,1.20
2023-04-23T15:55:10.084Z,1.15
2023-04-23T15:58:11.395Z,1.70
2023-04-23T16:01:12.865Z,1.40
2023-04-23T16:04:14.329Z,1.38
2023-04-23T16:07:16.093Z,1.67
2023-04-23T16:10:17.462Z,1.00
2023-04-23T16:13:18.904Z,1.23
2023-04-23T16:16:20.896Z,1.13
2023-04-23T16:19:22.322Z,0.93
2023-04-23T16:22:25.379Z,1.00
2023-04-23T16:25:26.757Z,1.02
2023-04-23T16:28:28.034Z,0.95
2023-04-23T16:31:29.377Z,1.15
2023-04-23T16:34:30.705Z,0.82
2023-04-23T16:37:32.052Z,1.42
2023-04-23T16:40:34.416Z,1.00
2023-04-23T16:43:35.857Z,1.05
2023-04-23T16:46:37.290Z,1.60
2023-04-23T16:49:38.963Z,1.10
2023-04-23T16:52:40.640Z,1.15
2023-04-23T16:55:41.921Z,1.50
2023-04-23T16:58:43.241Z,1.73
2023-04-23T17:01:44.574Z,1.33
2023-04-23T17:04:46.461Z,1.52
2023-04-23T17:07:47.948Z,1.88
2023-04-23T17:10:49.233Z,1.75
2023-04-23T17:13:50.862Z,1.65
2023-04-23T17:16:52.158Z,1.90
2023-04-23T17:19:53.475Z,1.35
2023-04-23T17:22:54.727Z,2.80
2023-04-23T17:25:55.998Z,1.58
2023-04-23T17:28:57.313Z,1.83
2023-04-23T17:31:58.837Z,2.15
2023-04-23T17:35:09.617Z,1.50
2023-04-23T17:38:12.617Z,1.83
2023-04-23T17:41:13.964Z,2.05
2023-04-23T17:44:15.370Z,1.73
2023-04-23T17:47:16.673Z,1.85
2023-04-23T17:50:18.085Z,2.03
2023-04-23T17:53:19.483Z,2.13
2023-04-23T17:56:21.707Z,1.67
2023-04-23T17:59:23.273Z,1.70
2023-04-23T18:02:24.689Z,2.05
2023-04-23T18:05:26.223Z,2.30
2023-04-23T18:08:27.597Z,1.40
2023-04-23T18:11:29.070Z,1.30
2023-04-23T18:14:30.489Z,1.17
2023-04-23T18:17:31.977Z,1.33
2023-04-23T18:20:35.412Z,1.70
2023-04-23T18:23:37.445Z,1.13
2023-04-23T18:26:38.930Z,1.27
2023-04-23T18:29:41.353Z,1.30
2023-04-23T18:32:46.947Z,1.33
2023-04-23T18:35:48.444Z,1.38
2023-04-23T18:38:49.871Z,1.25
2023-04-23T18:41:51.399Z,1.83
2023-04-23T18:44:53.708Z,2.00
2023-04-23T18:48:02.708Z,2.42
2023-04-23T18:51:04.414Z,1.50
2023-04-23T18:54:06.057Z,1.90
2023-04-23T18:57:07.459Z,1.63
2023-04-23T19:00:09.177Z,2.00
2023-04-23T19:03:23.604Z,2.17
2023-04-23T19:06:28.233Z,2.67
2023-04-23T19:09:29.788Z,1.73
2023-04-23T19:12:31.141Z,1.33
2023-04-23T19:15:32.574Z,2.42
2023-04-23T19:18:33.928Z,1.45
2023-04-23T19:21:35.499Z,1.52
2023-04-23T19:24:36.829Z,1.42
2023-04-23T19:27:38.126Z,1.67
2023-04-23T19:30:39.491Z,1.60
2023-04-23T19:33:42.710Z,1.70
2023-04-23T19:36:44.088Z,1.77
2023-04-23T19:39:45.449Z,2.42
2023-04-23T19:42:46.820Z,2.60
2023-04-23T19:45:48.133Z,1.92
2023-04-23T19:48:49.432Z,1.52
2023-04-23T19:51:52.449Z,2.33
2023-04-23T19:54:53.869Z,1.27
2023-04-23T19:57:55.526Z,1.75
2023-04-23T20:00:56.980Z,1.42
2023-04-23T20:03:58.530Z,1.50
2023-04-23T20:06:59.948Z,2.10
2023-04-23T20:10:01.342Z,1.95
2023-04-23T20:13:02.673Z,1.65
2023-04-23T20:16:04.237Z,1.67
2023-04-23T20:19:10.842Z,1.92
2023-04-23T20:22:12.309Z,2.15
2023-04-23T20:25:13.755Z,1.95
2023-04-23T20:28:15.192Z,2.33
2023-04-23T20:31:16.576Z,2.38
2023-04-23T20:34:17.866Z,1.58
2023-04-23T20:37:22.011Z,1.70
2023-04-23T20:40:23.479Z,1.55
2023-04-23T20:43:24.782Z,1.50
2023-04-23T20:46:26.285Z,2.53
2023-04-23T20:49:27.700Z,1.10
2023-04-23T20:52:28.950Z,1.50
2023-04-23T20:55:30.325Z,1.30
2023-04-23T20:58:31.593Z,1.55
2023-04-23T21:01:32.979Z,1.13
2023-04-23T21:04:34.506Z,1.23
2023-04-23T21:07:36.727Z,1.25
2023-04-23T21:10:38.732Z,1.70
2023-04-23T21:13:40.222Z,1.60
2023-04-23T21:16:41.519Z,1.00
2023-04-23T21:19:43.294Z,1.85
2023-04-23T21:22:44.716Z,1.60
2023-04-23T21:25:46.059Z,1.35
2023-04-23T21:28:47.356Z,1.92
2023-04-23T21:31:51.022Z,1.67
2023-04-23T21:34:52.384Z,1.00
2023-04-23T21:37:53.695Z,2.30
2023-04-23T21:40:55.046Z,1.40
2023-04-23T21:43:56.889Z,1.02
2023-04-23T21:46:58.254Z,1.05
2023-04-23T21:50:01.389Z,1.60
2023-04-23T21:53:03.143Z,1.42
2023-04-23T21:56:04.516Z,0.88
2023-04-23T21:59:05.923Z,1.60
2023-04-23T22:02:07.291Z,1.05
2023-04-23T22:05:09.216Z,1.10
2023-04-23T22:08:10.534Z,1.48
2023-04-23T22:11:12.483Z,1.08
2023-04-23T22:14:14.088Z,1.85
2023-04-23T22:17:18.061Z,0.95
2023-04-23T22:20:23.585Z,1.48
2023-04-23T22:23:24.895Z,1.00
2023-04-23T22:26:26.226Z,1.02
2023-04-23T22:29:27.537Z,1.20
2023-04-23T22:32:29.336Z,1.00
2023-04-23T22:35:30.980Z,0.98
2023-04-23T22:38:32.528Z,1.00
2023-04-23T22:41:36.423Z,1.48
2023-04-23T22:44:38.019Z,1.55
2023-04-23T22:47:39.333Z,1.70
2023-04-23T22:50:42.594Z,1.10
2023-04-23T22:53:43.844Z,0.90
2023-04-23T22:56:45.590Z,1.45
2023-04-23T22:59:46.855Z,1.02
2023-04-23T23:02:48.303Z,1.75
2023-04-23T23:05:49.644Z,1.00
2023-04-23T23:08:50.937Z,1.60
2023-04-23T23:11:52.194Z,1.95
2023-04-23T23:14:53.444Z,0.90
2023-04-23T23:17:54.797Z,1.90
2023-04-23T23:20:56.072Z,1.67
2023-04-23T23:23:57.300Z,1.05
2023-04-23T23:26:58.544Z,1.42
2023-04-23T23:29:59.906Z,1.50
2023-04-23T23:33:01.669Z,1.85
2023-04-23T23:36:03.100Z,1.63
2023-04-23T23:39:04.577Z,1.92
2023-04-23T23:42:05.857Z,1.65
2023-04-23T23:45:07.660Z,1.80
2023-04-23T23:48:09.167Z,1.73
2023-04-23T23:51:10.926Z,1.40
2023-04-23T23:54:12.320Z,1.90
2023-04-23T23:57:13.613Z,1.67
